sensor_id;sensor_type;location;lat;lon;timestamp;P1;durP1;ratioP1;P2;durP2;ratioP2
70313;SDS011;71040;47.526;18.986;2023-07-29T00:03:39;3.03;;;1.40;;
70313;SDS011;71040;47.526;18.986;2023-07-29T00:08:44;3.40;;;1.55;;
70313;SDS011;71040;47.526;18.986;2023-07-29T00:13:47;2.53;;;1.20;;
70313;SDS011;71040;47.526;18.986;2023-07-29T00:18:51;2.75;;;1.30;;
70313;SDS011;71040;47.526;18.986;2023-07-29T00:23:54;2.22;;;1.40;;
70313;SDS011;71040;47.526;18.986;2023-07-29T00:28:57;3.15;;;1.40;;
70313;SDS011;71040;47.526;18.986;2023-07-29T00:34:00;2.33;;;1.38;;
70313;SDS011;71040;47.526;18.986;2023-07-29T00:39:05;1.75;;;1.20;;
70313;SDS011;71040;47.526;18.986;2023-07-29T00:44:08;1.63;;;1.10;;
70313;SDS011;71040;47.526;18.986;2023-07-29T00:49:13;1.95;;;1.40;;
70313;SDS011;71040;47.526;18.986;2023-07-29T00:54:13;1.60;;;1.20;;
70313;SDS011;71040;47.526;18.986;2023-07-29T00:59:14;2.37;;;1.53;;
70313;SDS011;71040;47.526;18.986;2023-07-29T01:04:19;2.03;;;1.33;;
70313;SDS011;71040;47.526;18.986;2023-07-29T01:20:15;1.88;;;1.23;;
70313;SDS011;71040;47.526;18.986;2023-07-29T01:25:20;2.00;;;1.15;;
70313;SDS011;71040;47.526;18.986;2023-07-29T01:30:20;2.07;;;1.37;;
70313;SDS011;71040;47.526;18.986;2023-07-29T01:35:45;2.05;;;1.02;;
70313;SDS011;71040;47.526;18.986;2023-07-29T01:40:53;1.63;;;1.05;;
70313;SDS011;71040;47.526;18.986;2023-07-29T01:46:02;1.88;;;1.17;;
70313;SDS011;71040;47.526;18.986;2023-07-29T01:51:02;1.65;;;0.98;;
70313;SDS011;71040;47.526;18.986;2023-07-29T01:56:03;2.00;;;1.10;;
70313;SDS011;71040;47.526;18.986;2023-07-29T02:01:03;1.80;;;1.00;;
70313;SDS011;71040;47.526;18.986;2023-07-29T02:06:04;2.10;;;1.10;;
70313;SDS011;71040;47.526;18.986;2023-07-29T02:11:04;1.63;;;1.23;;
70313;SDS011;71040;47.526;18.986;2023-07-29T02:16:05;1.10;;;1.00;;
70313;SDS011;71040;47.526;18.986;2023-07-29T02:21:07;1.30;;;1.13;;
70313;SDS011;71040;47.526;18.986;2023-07-29T02:26:08;1.90;;;1.20;;
70313;SDS011;71040;47.526;18.986;2023-07-29T02:31:20;2.05;;;0.95;;
70313;SDS011;71040;47.526;18.986;2023-07-29T02:36:25;1.80;;;1.10;;
70313;SDS011;71040;47.526;18.986;2023-07-29T02:41:28;2.03;;;1.42;;
70313;SDS011;71040;47.526;18.986;2023-07-29T02:46:31;1.25;;;1.00;;
70313;SDS011;71040;47.526;18.986;2023-07-29T02:51:33;3.00;;;1.63;;
70313;SDS011;71040;47.526;18.986;2023-07-29T02:56:37;2.50;;;1.27;;
70313;SDS011;71040;47.526;18.986;2023-07-29T03:01:40;2.55;;;1.10;;
70313;SDS011;71040;47.526;18.986;2023-07-29T03:06:40;2.17;;;1.23;;
70313;SDS011;71040;47.526;18.986;2023-07-29T03:11:43;1.67;;;1.08;;
70313;SDS011;71040;47.526;18.986;2023-07-29T03:16:44;1.98;;;1.33;;
70313;SDS011;71040;47.526;18.986;2023-07-29T03:21:44;1.80;;;1.20;;
70313;SDS011;71040;47.526;18.986;2023-07-29T03:26:47;1.75;;;1.30;;
70313;SDS011;71040;47.526;18.986;2023-07-29T03:31:47;1.90;;;1.30;;
70313;SDS011;71040;47.526;18.986;2023-07-29T03:36:50;1.88;;;1.38;;
70313;SDS011;71040;47.526;18.986;2023-07-29T03:41:51;1.83;;;1.35;;
70313;SDS011;71040;47.526;18.986;2023-07-29T03:46:52;1.83;;;1.60;;
70313;SDS011;71040;47.526;18.986;2023-07-29T03:51:52;1.90;;;1.30;;
70313;SDS011;71040;47.526;18.986;2023-07-29T03:56:55;1.73;;;1.25;;
70313;SDS011;71040;47.526;18.986;2023-07-29T04:01:55;2.10;;;1.30;;
70313;SDS011;71040;47.526;18.986;2023-07-29T04:06:55;2.60;;;1.30;;
70313;SDS011;71040;47.526;18.986;2023-07-29T04:11:58;1.50;;;1.10;;
70313;SDS011;71040;47.526;18.986;2023-07-29T04:16:59;1.92;;;1.30;;
70313;SDS011;71040;47.526;18.986;2023-07-29T04:22:02;1.30;;;1.00;;
70313;SDS011;71040;47.526;18.986;2023-07-29T04:27:02;2.08;;;1.35;;
70313;SDS011;71040;47.526;18.986;2023-07-29T04:32:05;1.55;;;1.20;;
70313;SDS011;71040;47.526;18.986;2023-07-29T04:37:06;2.05;;;1.40;;
70313;SDS011;71040;47.526;18.986;2023-07-29T04:42:06;1.40;;;1.03;;
70313;SDS011;71040;47.526;18.986;2023-07-29T04:47:09;2.47;;;1.50;;
70313;SDS011;71040;47.526;18.986;2023-07-29T04:52:09;1.60;;;1.20;;
70313;SDS011;71040;47.526;18.986;2023-07-29T04:57:12;1.57;;;1.20;;
70313;SDS011;71040;47.526;18.986;2023-07-29T05:02:13;1.50;;;1.15;;
70313;SDS011;71040;47.526;18.986;2023-07-29T05:07:15;1.50;;;1.10;;
70313;SDS011;71040;47.526;18.986;2023-07-29T05:12:18;2.00;;;1.25;;
70313;SDS011;71040;47.526;18.986;2023-07-29T05:17:21;1.50;;;1.20;;
70313;SDS011;71040;47.526;18.986;2023-07-29T05:22:24;1.70;;;1.40;;
70313;SDS011;71040;47.526;18.986;2023-07-29T05:27:29;1.40;;;1.13;;
70313;SDS011;71040;47.526;18.986;2023-07-29T05:32:32;1.73;;;1.00;;
70313;SDS011;71040;47.526;18.986;2023-07-29T05:37:34;1.13;;;0.82;;
70313;SDS011;71040;47.526;18.986;2023-07-29T05:42:37;1.40;;;1.03;;
70313;SDS011;71040;47.526;18.986;2023-07-29T05:47:38;1.30;;;0.90;;
70313;SDS011;71040;47.526;18.986;2023-07-29T05:52:38;1.47;;;1.00;;
70313;SDS011;71040;47.526;18.986;2023-07-29T05:57:38;1.20;;;0.83;;
70313;SDS011;71040;47.526;18.986;2023-07-29T06:02:48;1.87;;;1.10;;
70313;SDS011;71040;47.526;18.986;2023-07-29T06:07:48;1.40;;;1.13;;
70313;SDS011;71040;47.526;18.986;2023-07-29T06:12:48;1.50;;;0.90;;
70313;SDS011;71040;47.526;18.986;2023-07-29T06:17:51;1.35;;;0.88;;
70313;SDS011;71040;47.526;18.986;2023-07-29T06:22:52;1.52;;;1.13;;
70313;SDS011;71040;47.526;18.986;2023-07-29T06:27:55;2.53;;;1.43;;
70313;SDS011;71040;47.526;18.986;2023-07-29T06:32:55;1.20;;;0.93;;
70313;SDS011;71040;47.526;18.986;2023-07-29T06:37:55;1.73;;;1.33;;
70313;SDS011;71040;47.526;18.986;2023-07-29T06:42:56;2.70;;;1.20;;
70313;SDS011;71040;47.526;18.986;2023-07-29T06:47:59;2.30;;;1.10;;
70313;SDS011;71040;47.526;18.986;2023-07-29T06:52:59;1.65;;;1.00;;
70313;SDS011;71040;47.526;18.986;2023-07-29T06:58:04;1.92;;;1.02;;
70313;SDS011;71040;47.526;18.986;2023-07-29T07:03:05;1.17;;;0.90;;
70313;SDS011;71040;47.526;18.986;2023-07-29T07:08:08;1.23;;;0.98;;
70313;SDS011;71040;47.526;18.986;2023-07-29T07:13:08;1.90;;;1.13;;
70313;SDS011;71040;47.526;18.986;2023-07-29T07:18:11;1.30;;;1.20;;
70313;SDS011;71040;47.526;18.986;2023-07-29T07:23:11;1.85;;;1.20;;
70313;SDS011;71040;47.526;18.986;2023-07-29T07:28:13;1.30;;;1.00;;
70313;SDS011;71040;47.526;18.986;2023-07-29T07:33:13;2.45;;;1.15;;
70313;SDS011;71040;47.526;18.986;2023-07-29T07:38:14;1.50;;;1.20;;
70313;SDS011;71040;47.526;18.986;2023-07-29T07:43:14;1.83;;;1.20;;
70313;SDS011;71040;47.526;18.986;2023-07-29T07:48:17;1.38;;;1.10;;
70313;SDS011;71040;47.526;18.986;2023-07-29T07:53:17;2.03;;;1.23;;
70313;SDS011;71040;47.526;18.986;2023-07-29T07:58:20;1.30;;;1.00;;
70313;SDS011;71040;47.526;18.986;2023-07-29T08:03:23;1.73;;;1.05;;
70313;SDS011;71040;47.526;18.986;2023-07-29T08:08:26;1.10;;;1.00;;
70313;SDS011;71040;47.526;18.986;2023-07-29T08:13:35;1.65;;;1.13;;
70313;SDS011;71040;47.526;18.986;2023-07-29T08:18:38;2.30;;;1.10;;
70313;SDS011;71040;47.526;18.986;2023-07-29T08:23:43;1.48;;;1.00;;
70313;SDS011;71040;47.526;18.986;2023-07-29T08:28:46;1.38;;;1.13;;
70313;SDS011;71040;47.526;18.986;2023-07-29T08:33:47;2.17;;;1.20;;
70313;SDS011;71040;47.526;18.986;2023-07-29T08:38:47;1.13;;;0.82;;
70313;SDS011;71040;47.526;18.986;2023-07-29T08:43:52;1.30;;;1.10;;
70313;SDS011;71040;47.526;18.986;2023-07-29T08:48:59;1.25;;;1.02;;
70313;SDS011;71040;47.526;18.986;2023-07-29T08:54:01;1.55;;;0.90;;
70313;SDS011;71040;47.526;18.986;2023-07-29T08:59:02;1.42;;;1.00;;
70313;SDS011;71040;47.526;18.986;2023-07-29T09:04:07;1.70;;;1.05;;
70313;SDS011;71040;47.526;18.986;2023-07-29T09:09:11;1.23;;;0.98;;
70313;SDS011;71040;47.526;18.986;2023-07-29T09:14:14;1.63;;;1.10;;
70313;SDS011;71040;47.526;18.986;2023-07-29T09:19:15;1.65;;;1.25;;
70313;SDS011;71040;47.526;18.986;2023-07-29T09:24:16;1.40;;;1.00;;
70313;SDS011;71040;47.526;18.986;2023-07-29T09:29:22;1.67;;;1.25;;
70313;SDS011;71040;47.526;18.986;2023-07-29T09:34:23;2.45;;;1.15;;
70313;SDS011;71040;47.526;18.986;2023-07-29T09:39:24;1.37;;;0.90;;
70313;SDS011;71040;47.526;18.986;2023-07-29T09:44:24;1.53;;;1.13;;
70313;SDS011;71040;47.526;18.986;2023-07-29T09:49:27;3.42;;;1.13;;
70313;SDS011;71040;47.526;18.986;2023-07-29T09:54:30;4.60;;;1.00;;
70313;SDS011;71040;47.526;18.986;2023-07-29T09:59:35;2.17;;;0.90;;
70313;SDS011;71040;47.526;18.986;2023-07-29T10:04:36;1.03;;;0.73;;
70313;SDS011;71040;47.526;18.986;2023-07-29T10:09:39;1.08;;;0.80;;
70313;SDS011;71040;47.526;18.986;2023-07-29T10:14:39;2.58;;;0.73;;
70313;SDS011;71040;47.526;18.986;2023-07-29T10:19:41;1.60;;;0.90;;
70313;SDS011;71040;47.526;18.986;2023-07-29T10:24:46;3.35;;;0.90;;
70313;SDS011;71040;47.526;18.986;2023-07-29T10:29:48;1.60;;;0.73;;
70313;SDS011;71040;47.526;18.986;2023-07-29T10:34:52;1.30;;;0.60;;
70313;SDS011;71040;47.526;18.986;2023-07-29T10:39:55;1.88;;;0.88;;
70313;SDS011;71040;47.526;18.986;2023-07-29T10:44:56;1.30;;;0.80;;
70313;SDS011;71040;47.526;18.986;2023-07-29T10:50:16;1.33;;;0.70;;
70313;SDS011;71040;47.526;18.986;2023-07-29T10:55:25;3.08;;;0.80;;
70313;SDS011;71040;47.526;18.986;2023-07-29T11:00:27;1.83;;;1.20;;
70313;SDS011;71040;47.526;18.986;2023-07-29T11:11:08;1.65;;;0.80;;
70313;SDS011;71040;47.526;18.986;2023-07-29T11:16:11;2.05;;;1.02;;
70313;SDS011;71040;47.526;18.986;2023-07-29T11:21:16;1.70;;;1.00;;
70313;SDS011;71040;47.526;18.986;2023-07-29T11:26:20;1.25;;;0.88;;
70313;SDS011;71040;47.526;18.986;2023-07-29T11:31:38;1.75;;;1.20;;
70313;SDS011;71040;47.526;18.986;2023-07-29T11:36:43;1.63;;;0.90;;
70313;SDS011;71040;47.526;18.986;2023-07-29T11:41:45;1.65;;;1.13;;
70313;SDS011;71040;47.526;18.986;2023-07-29T11:46:52;2.07;;;1.10;;
70313;SDS011;71040;47.526;18.986;2023-07-29T11:51:54;2.10;;;1.08;;
70313;SDS011;71040;47.526;18.986;2023-07-29T11:56:54;2.57;;;1.30;;
70313;SDS011;71040;47.526;18.986;2023-07-29T12:01:58;1.23;;;0.93;;
70313;SDS011;71040;47.526;18.986;2023-07-29T12:07:00;2.78;;;1.00;;
70313;SDS011;71040;47.526;18.986;2023-07-29T12:12:04;4.30;;;1.10;;
70313;SDS011;71040;47.526;18.986;2023-07-29T12:17:06;1.70;;;1.05;;
70313;SDS011;71040;47.526;18.986;2023-07-29T12:22:06;2.25;;;1.10;;
70313;SDS011;71040;47.526;18.986;2023-07-29T12:27:12;1.25;;;0.88;;
70313;SDS011;71040;47.526;18.986;2023-07-29T12:32:16;3.65;;;0.93;;
70313;SDS011;71040;47.526;18.986;2023-07-29T12:37:17;1.73;;;1.05;;
70313;SDS011;71040;47.526;18.986;2023-07-29T12:42:17;2.60;;;1.27;;
70313;SDS011;71040;47.526;18.986;2023-07-29T12:47:17;2.10;;;1.23;;
70313;SDS011;71040;47.526;18.986;2023-07-29T12:52:20;2.17;;;1.27;;
70313;SDS011;71040;47.526;18.986;2023-07-29T12:57:21;3.67;;;1.20;;
70313;SDS011;71040;47.526;18.986;2023-07-29T13:02:21;1.40;;;0.70;;
70313;SDS011;71040;47.526;18.986;2023-07-29T13:07:22;4.03;;;1.00;;
70313;SDS011;71040;47.526;18.986;2023-07-29T13:12:22;1.20;;;0.93;;
70313;SDS011;71040;47.526;18.986;2023-07-29T13:17:22;2.03;;;1.30;;
70313;SDS011;71040;47.526;18.986;2023-07-29T13:22:27;2.63;;;1.63;;
70313;SDS011;71040;47.526;18.986;2023-07-29T13:27:28;1.95;;;0.88;;
70313;SDS011;71040;47.526;18.986;2023-07-29T13:32:31;2.67;;;1.10;;
70313;SDS011;71040;47.526;18.986;2023-07-29T13:37:33;2.27;;;1.13;;
70313;SDS011;71040;47.526;18.986;2023-07-29T13:42:36;2.75;;;0.90;;
70313;SDS011;71040;47.526;18.986;2023-07-29T13:47:37;1.80;;;0.90;;
70313;SDS011;71040;47.526;18.986;2023-07-29T13:52:37;1.13;;;0.85;;
70313;SDS011;71040;47.526;18.986;2023-07-29T13:57:40;1.30;;;0.93;;
70313;SDS011;71040;47.526;18.986;2023-07-29T14:02:41;1.67;;;0.88;;
70313;SDS011;71040;47.526;18.986;2023-07-29T14:07:42;1.73;;;1.13;;
70313;SDS011;71040;47.526;18.986;2023-07-29T14:12:43;2.07;;;1.37;;
70313;SDS011;71040;47.526;18.986;2023-07-29T14:17:43;2.30;;;0.90;;
70313;SDS011;71040;47.526;18.986;2023-07-29T14:22:44;7.45;;;1.30;;
70313;SDS011;71040;47.526;18.986;2023-07-29T14:27:44;1.30;;;1.03;;
70313;SDS011;71040;47.526;18.986;2023-07-29T14:32:44;2.90;;;0.90;;
70313;SDS011;71040;47.526;18.986;2023-07-29T14:37:47;1.48;;;0.98;;
70313;SDS011;71040;47.526;18.986;2023-07-29T14:42:47;3.03;;;0.83;;
70313;SDS011;71040;47.526;18.986;2023-07-29T14:47:48;1.90;;;1.10;;
70313;SDS011;71040;47.526;18.986;2023-07-29T14:52:50;3.15;;;1.15;;
70313;SDS011;71040;47.526;18.986;2023-07-29T14:57:53;1.63;;;1.10;;
70313;SDS011;71040;47.526;18.986;2023-07-29T15:02:58;2.53;;;1.00;;
70313;SDS011;71040;47.526;18.986;2023-07-29T15:07:59;1.83;;;1.05;;
70313;SDS011;71040;47.526;18.986;2023-07-29T15:12:59;1.73;;;1.00;;
70313;SDS011;71040;47.526;18.986;2023-07-29T15:18:00;1.83;;;0.90;;
70313;SDS011;71040;47.526;18.986;2023-07-29T15:23:00;3.00;;;1.57;;
70313;SDS011;71040;47.526;18.986;2023-07-29T15:28:00;2.07;;;1.33;;
70313;SDS011;71040;47.526;18.986;2023-07-29T15:33:01;2.58;;;0.88;;
70313;SDS011;71040;47.526;18.986;2023-07-29T15:38:02;3.27;;;0.77;;
70313;SDS011;71040;47.526;18.986;2023-07-29T15:43:02;2.17;;;1.03;;
70313;SDS011;71040;47.526;18.986;2023-07-29T15:48:05;2.83;;;0.93;;
70313;SDS011;71040;47.526;18.986;2023-07-29T15:53:05;2.27;;;1.33;;
70313;SDS011;71040;47.526;18.986;2023-07-29T15:58:05;1.63;;;0.97;;
70313;SDS011;71040;47.526;18.986;2023-07-29T16:03:06;2.67;;;1.20;;
70313;SDS011;71040;47.526;18.986;2023-07-29T16:08:09;3.23;;;1.30;;
70313;SDS011;71040;47.526;18.986;2023-07-29T16:13:09;4.10;;;1.52;;
70313;SDS011;71040;47.526;18.986;2023-07-29T16:18:10;5.20;;;1.27;;
70313;SDS011;71040;47.526;18.986;2023-07-29T16:23:12;2.75;;;0.90;;
70313;SDS011;71040;47.526;18.986;2023-07-29T16:28:13;2.58;;;1.13;;
70313;SDS011;71040;47.526;18.986;2023-07-29T16:33:13;2.30;;;1.10;;
70313;SDS011;71040;47.526;18.986;2023-07-29T16:38:20;1.67;;;1.27;;
70313;SDS011;71040;47.526;18.986;2023-07-29T16:43:23;2.13;;;1.05;;
70313;SDS011;71040;47.526;18.986;2023-07-29T16:48:26;1.33;;;0.90;;
70313;SDS011;71040;47.526;18.986;2023-07-29T16:53:28;3.15;;;1.08;;
70313;SDS011;71040;47.526;18.986;2023-07-29T16:58:29;2.00;;;1.00;;
70313;SDS011;71040;47.526;18.986;2023-07-29T17:03:29;1.80;;;1.00;;
70313;SDS011;71040;47.526;18.986;2023-07-29T17:08:29;2.90;;;1.20;;
70313;SDS011;71040;47.526;18.986;2023-07-29T17:13:32;3.00;;;1.80;;
70313;SDS011;71040;47.526;18.986;2023-07-29T17:18:35;2.88;;;1.90;;
70313;SDS011;71040;47.526;18.986;2023-07-29T17:23:40;4.95;;;1.92;;
70313;SDS011;71040;47.526;18.986;2023-07-29T17:28:43;2.63;;;1.77;;
70313;SDS011;71040;47.526;18.986;2023-07-29T17:33:46;3.88;;;1.17;;
70313;SDS011;71040;47.526;18.986;2023-07-29T17:38:51;1.73;;;1.10;;
70313;SDS011;71040;47.526;18.986;2023-07-29T17:43:54;3.47;;;1.23;;
70313;SDS011;71040;47.526;18.986;2023-07-29T17:48:56;5.18;;;1.30;;
70313;SDS011;71040;47.526;18.986;2023-07-29T17:54:01;1.33;;;0.90;;
70313;SDS011;71040;47.526;18.986;2023-07-29T17:59:02;3.15;;;0.93;;
70313;SDS011;71040;47.526;18.986;2023-07-29T18:04:05;1.98;;;0.77;;
70313;SDS011;71040;47.526;18.986;2023-07-29T18:09:06;1.45;;;0.80;;
70313;SDS011;71040;47.526;18.986;2023-07-29T18:14:12;1.40;;;0.60;;
70313;SDS011;71040;47.526;18.986;2023-07-29T18:19:15;1.63;;;0.90;;
70313;SDS011;71040;47.526;18.986;2023-07-29T18:24:15;1.93;;;0.90;;
70313;SDS011;71040;47.526;18.986;2023-07-29T18:29:16;1.67;;;0.77;;
70313;SDS011;71040;47.526;18.986;2023-07-29T18:34:19;1.98;;;0.77;;
70313;SDS011;71040;47.526;18.986;2023-07-29T18:39:23;2.42;;;1.00;;
70313;SDS011;71040;47.526;18.986;2023-07-29T18:44:24;3.47;;;1.20;;
70313;SDS011;71040;47.526;18.986;2023-07-29T18:49:24;2.03;;;1.00;;
70313;SDS011;71040;47.526;18.986;2023-07-29T18:54:24;1.77;;;1.00;;
70313;SDS011;71040;47.526;18.986;2023-07-29T18:59:25;1.48;;;0.90;;
70313;SDS011;71040;47.526;18.986;2023-07-29T19:04:28;2.72;;;1.00;;
70313;SDS011;71040;47.526;18.986;2023-07-29T19:09:32;5.50;;;1.50;;
70313;SDS011;71040;47.526;18.986;2023-07-29T19:14:33;6.27;;;1.33;;
70313;SDS011;71040;47.526;18.986;2023-07-29T19:19:33;9.30;;;2.30;;
70313;SDS011;71040;47.526;18.986;2023-07-29T19:24:36;9.10;;;1.50;;
70313;SDS011;71040;47.526;18.986;2023-07-29T19:29:36;4.60;;;1.67;;
70313;SDS011;71040;47.526;18.986;2023-07-29T19:34:37;6.80;;;1.20;;
70313;SDS011;71040;47.526;18.986;2023-07-29T19:39:39;3.07;;;1.20;;
70313;SDS011;71040;47.526;18.986;2023-07-29T19:44:41;2.45;;;1.20;;
70313;SDS011;71040;47.526;18.986;2023-07-29T19:49:44;3.15;;;1.00;;
70313;SDS011;71040;47.526;18.986;2023-07-29T19:54:44;2.93;;;1.20;;
70313;SDS011;71040;47.526;18.986;2023-07-29T19:59:47;4.93;;;1.00;;
70313;SDS011;71040;47.526;18.986;2023-07-29T20:04:48;3.88;;;1.00;;
70313;SDS011;71040;47.526;18.986;2023-07-29T20:09:49;1.83;;;0.90;;
70313;SDS011;71040;47.526;18.986;2023-07-29T20:14:49;3.63;;;0.90;;
70313;SDS011;71040;47.526;18.986;2023-07-29T20:19:50;2.00;;;0.87;;
70313;SDS011;71040;47.526;18.986;2023-07-29T20:24:50;1.63;;;1.03;;
70313;SDS011;71040;47.526;18.986;2023-07-29T20:29:55;1.73;;;1.00;;
70313;SDS011;71040;47.526;18.986;2023-07-29T20:34:56;3.43;;;1.10;;
70313;SDS011;71040;47.526;18.986;2023-07-29T20:39:56;3.10;;;0.97;;
70313;SDS011;71040;47.526;18.986;2023-07-29T20:44:56;3.27;;;0.90;;
70313;SDS011;71040;47.526;18.986;2023-07-29T20:49:59;2.17;;;0.80;;
70313;SDS011;71040;47.526;18.986;2023-07-29T20:55:00;2.00;;;0.73;;
70313;SDS011;71040;47.526;18.986;2023-07-29T21:00:00;1.57;;;0.63;;
70313;SDS011;71040;47.526;18.986;2023-07-29T21:05:09;1.42;;;0.80;;
70313;SDS011;71040;47.526;18.986;2023-07-29T21:10:09;1.17;;;0.60;;
70313;SDS011;71040;47.526;18.986;2023-07-29T21:15:12;3.13;;;0.93;;
70313;SDS011;71040;47.526;18.986;2023-07-29T21:20:12;2.23;;;0.70;;
70313;SDS011;71040;47.526;18.986;2023-07-29T21:25:12;1.57;;;0.70;;
70313;SDS011;71040;47.526;18.986;2023-07-29T21:30:13;1.40;;;0.75;;
70313;SDS011;71040;47.526;18.986;2023-07-29T21:35:16;1.80;;;0.88;;
70313;SDS011;71040;47.526;18.986;2023-07-29T21:40:19;1.75;;;0.80;;
70313;SDS011;71040;47.526;18.986;2023-07-29T21:45:19;1.03;;;0.70;;
70313;SDS011;71040;47.526;18.986;2023-07-29T21:50:19;2.27;;;0.77;;
70313;SDS011;71040;47.526;18.986;2023-07-29T21:55:20;0.90;;;0.57;;
70313;SDS011;71040;47.526;18.986;2023-07-29T22:00:22;1.83;;;0.60;;
70313;SDS011;71040;47.526;18.986;2023-07-29T22:05:26;3.13;;;1.02;;
70313;SDS011;71040;47.526;18.986;2023-07-29T22:10:29;2.93;;;0.90;;
70313;SDS011;71040;47.526;18.986;2023-07-29T22:15:33;2.90;;;0.70;;
70313;SDS011;71040;47.526;18.986;2023-07-29T22:20:34;1.67;;;0.75;;
70313;SDS011;71040;47.526;18.986;2023-07-29T22:25:34;2.17;;;0.70;;
70313;SDS011;71040;47.526;18.986;2023-07-29T22:30:35;2.33;;;0.70;;
70313;SDS011;71040;47.526;18.986;2023-07-29T22:35:38;1.40;;;0.65;;
70313;SDS011;71040;47.526;18.986;2023-07-29T22:40:38;1.07;;;0.70;;
70313;SDS011;71040;47.526;18.986;2023-07-29T22:45:39;1.23;;;0.63;;
70313;SDS011;71040;47.526;18.986;2023-07-29T22:50:39;0.90;;;0.50;;
70313;SDS011;71040;47.526;18.986;2023-07-29T22:55:45;0.82;;;0.52;;
70313;SDS011;71040;47.526;18.986;2023-07-29T23:00:49;3.58;;;0.60;;
70313;SDS011;71040;47.526;18.986;2023-07-29T23:05:54;2.30;;;0.52;;
70313;SDS011;71040;47.526;18.986;2023-07-29T23:10:59;4.45;;;0.60;;
70313;SDS011;71040;47.526;18.986;2023-07-29T23:16:01;1.23;;;0.88;;
70313;SDS011;71040;47.526;18.986;2023-07-29T23:21:02;2.28;;;0.85;;
70313;SDS011;71040;47.526;18.986;2023-07-29T23:26:05;2.03;;;0.77;;
70313;SDS011;71040;47.526;18.986;2023-07-29T23:31:07;1.27;;;0.60;;
70313;SDS011;71040;47.526;18.986;2023-07-29T23:36:10;1.40;;;0.60;;
70313;SDS011;71040;47.526;18.986;2023-07-29T23:41:15;1.52;;;0.73;;
70313;SDS011;71040;47.526;18.986;2023-07-29T23:46:16;1.25;;;0.70;;
70313;SDS011;71040;47.526;18.986;2023-07-29T23:51:16;1.67;;;0.60;;
70313;SDS011;71040;47.526;18.986;2023-07-29T23:56:17;1.73;;;0.53;;
